Time;durP1;ratioP1;P1;durP2;ratioP2;P2;SDS_P1;SDS_P2;PMS_P1;PMS_P2;Temp;Humidity;BMP_temperature;BMP_pressure;BME280_temperature;BME280_humidity;BME280_pressure;Samples;Min_cycle;Max_cycle;Signal;HPM_P1;HPM_P2
2023/06/07 00:02:15;;;;;;;13.18;8.18;;;11.00;99.90;;;;;;7379239;19;20528;-84
2023/06/07 00:04:42;;;;;;;16.60;8.00;;;11.00;99.90;;;;;;7369198;19;20029;-83
2023/06/07 00:07:10;;;;;;;13.10;8.00;;;10.90;99.90;;;;;;7377153;19;20026;-84
2023/06/07 00:09:37;;;;;;;18.48;8.23;;;11.00;99.90;;;;;;7376577;19;20010;-84
2023/06/07 00:12:06;;;;;;;13.55;8.48;;;10.90;99.90;;;;;;7375577;19;20011;-83
2023/06/07 00:14:33;;;;;;;15.93;8.55;;;10.90;99.90;;;;;;7377664;19;20082;-84
2023/06/07 00:17:02;;;;;;;16.00;8.90;;;10.80;99.90;;;;;;7372936;19;20654;-84
2023/06/07 00:19:29;;;;;;;14.55;8.27;;;10.80;99.90;;;;;;7374464;19;20375;-84
2023/06/07 00:21:57;;;;;;;18.17;9.20;;;10.80;99.90;;;;;;7376662;19;20827;-83
2023/06/07 00:24:23;;;;;;;15.77;9.13;;;10.70;99.90;;;;;;7378976;19;20022;-84
2023/06/07 00:26:51;;;;;;;19.73;8.35;;;10.70;99.90;;;;;;7376052;19;20047;-83
2023/06/07 00:29:17;;;;;;;13.05;8.40;;;10.70;99.90;;;;;;7381164;19;20025;-83
2023/06/07 00:31:45;;;;;;;17.00;8.27;;;10.70;99.90;;;;;;7379638;19;20477;-83
2023/06/07 00:34:11;;;;;;;16.75;8.93;;;10.70;99.90;;;;;;7380286;19;20018;-84
2023/06/07 00:36:38;;;;;;;16.75;8.95;;;10.70;99.90;;;;;;7381342;19;20018;-84
2023/06/07 00:39:06;;;;;;;16.85;9.50;;;10.70;99.90;;;;;;7381916;19;20014;-83
2023/06/07 00:41:32;;;;;;;15.57;9.20;;;10.70;99.90;;;;;;7380412;19;20499;-84
2023/06/07 00:44:02;;;;;;;16.33;8.65;;;10.60;99.90;;;;;;7380736;19;20412;-85
2023/06/07 00:46:30;;;;;;;14.75;8.50;;;10.60;99.90;;;;;;7381211;19;20076;-84
2023/06/07 00:48:57;;;;;;;13.55;7.88;;;10.60;99.90;;;;;;7382111;19;20022;-85
2023/06/07 00:51:29;;;;;;;19.40;9.63;;;10.60;99.90;;;;;;7382378;19;20022;-84
2023/06/07 00:54:03;;;;;;;18.10;9.65;;;10.60;99.90;;;;;;7373732;19;20018;-84
2023/06/07 00:56:29;;;;;;;14.55;9.13;;;10.60;99.90;;;;;;7369934;19;20026;-84
2023/06/07 00:58:58;;;;;;;15.80;9.93;;;10.60;99.90;;;;;;7376308;19;20543;-84
2023/06/07 01:01:25;;;;;;;13.95;9.27;;;10.60;99.90;;;;;;7371950;19;20498;-85
2023/06/07 01:03:56;;;;;;;16.08;9.27;;;10.60;99.90;;;;;;7373870;19;20019;-84
2023/06/07 01:06:24;;;;;;;14.20;8.77;;;10.50;99.90;;;;;;7371968;19;20102;-84
2023/06/07 01:08:51;;;;;;;19.20;9.43;;;10.60;99.90;;;;;;7376966;19;20018;-84
2023/06/07 01:11:22;;;;;;;18.88;9.15;;;10.60;99.90;;;;;;7374450;19;20503;-84
2023/06/07 01:14:01;;;;;;;14.95;8.93;;;10.60;99.90;;;;;;7375091;19;20014;-84
2023/06/07 01:16:29;;;;;;;14.95;9.80;;;10.60;99.90;;;;;;7370730;19;20023;-84
2023/06/07 01:18:56;;;;;;;16.25;9.77;;;10.60;99.90;;;;;;7375801;19;20025;-84
2023/06/07 01:21:23;;;;;;;15.27;9.68;;;10.60;99.90;;;;;;7376326;19;20019;-84
2023/06/07 01:23:52;;;;;;;15.85;9.25;;;10.70;99.90;;;;;;7381204;19;20018;-85
2023/06/07 01:26:20;;;;;;;16.95;9.88;;;10.80;99.90;;;;;;7381861;19;20030;-84
2023/06/07 01:28:49;;;;;;;17.08;9.40;;;10.80;99.90;;;;;;7381778;19;20473;-84
2023/06/07 01:31:17;;;;;;;16.00;10.00;;;10.80;99.90;;;;;;7381921;19;20010;-84
2023/06/07 01:33:48;;;;;;;15.73;10.02;;;10.90;99.90;;;;;;7381224;19;20602;-84
2023/06/07 01:36:16;;;;;;;18.35;10.50;;;10.90;99.90;;;;;;7380686;19;20586;-84
2023/06/07 01:38:47;;;;;;;18.55;10.35;;;10.90;99.90;;;;;;7383186;19;20469;-83
2023/06/07 01:41:17;;;;;;;14.52;10.32;;;11.00;99.90;;;;;;7381855;19;20022;-84
2023/06/07 01:43:51;;;;;;;16.17;9.63;;;11.00;99.90;;;;;;7378789;19;20021;-83
2023/06/07 01:46:18;;;;;;;14.18;9.68;;;11.00;99.90;;;;;;7380674;19;20035;-84
2023/06/07 01:48:47;;;;;;;17.75;9.40;;;11.00;99.90;;;;;;7384892;19;20026;-84
2023/06/07 01:51:13;;;;;;;16.95;9.77;;;11.00;99.90;;;;;;7385823;19;20400;-84
2023/06/07 01:53:42;;;;;;;16.38;9.57;;;11.00;99.90;;;;;;7384032;19;20026;-84
2023/06/07 01:56:22;;;;;;;19.20;10.55;;;11.10;99.90;;;;;;7378330;19;20025;-84
2023/06/07 01:58:56;;;;;;;16.48;9.98;;;11.10;99.90;;;;;;7381344;19;20014;-83
2023/06/07 02:01:43;;;;;;;16.25;10.55;;;11.10;99.90;;;;;;7383610;19;20022;-84
2023/06/07 02:04:13;;;;;;;21.95;12.32;;;11.10;99.90;;;;;;7377100;19;20019;-84
2023/06/07 02:06:44;;;;;;;20.75;9.77;;;11.20;99.90;;;;;;7386681;19;20251;-84
2023/06/07 02:09:13;;;;;;;15.20;9.80;;;11.20;99.90;;;;;;7384953;19;20014;-84
2023/06/07 02:11:42;;;;;;;14.05;9.45;;;11.20;99.90;;;;;;7381905;19;20078;-84
2023/06/07 02:14:09;;;;;;;18.23;10.40;;;11.30;99.90;;;;;;7382558;19;20022;-85
2023/06/07 02:16:37;;;;;;;20.38;10.15;;;11.30;99.90;;;;;;7381335;19;20015;-84
2023/06/07 02:19:09;;;;;;;16.52;9.90;;;11.30;99.90;;;;;;7379462;19;20634;-84
2023/06/07 02:21:49;;;;;;;18.65;9.93;;;11.40;99.90;;;;;;7365012;19;20030;-83
2023/06/07 02:24:17;;;;;;;21.80;10.27;;;11.40;99.90;;;;;;7377762;19;20131;-84
2023/06/07 02:26:43;;;;;;;19.23;9.43;;;11.40;99.90;;;;;;7374580;19;20025;-84
2023/06/07 02:29:10;;;;;;;16.20;9.15;;;11.30;99.90;;;;;;7386931;19;20475;-84
2023/06/07 02:31:37;;;;;;;19.77;10.15;;;11.40;99.90;;;;;;7383941;19;20033;-84
2023/06/07 02:34:03;;;;;;;21.80;10.25;;;11.40;99.90;;;;;;7386600;19;20010;-84
2023/06/07 02:36:32;;;;;;;20.77;10.27;;;11.40;99.90;;;;;;7382494;19;20014;-83
2023/06/07 02:38:59;;;;;;;19.27;10.50;;;11.50;99.90;;;;;;7382759;19;20026;-84
2023/06/07 02:41:25;;;;;;;16.98;9.48;;;11.40;99.90;;;;;;7382780;19;20025;-85
2023/06/07 02:43:55;;;;;;;18.65;9.82;;;11.40;99.90;;;;;;7383756;19;20010;-84
2023/06/07 02:46:23;;;;;;;16.38;9.68;;;11.40;99.90;;;;;;7381349;19;20491;-84
2023/06/07 02:48:51;;;;;;;16.95;9.32;;;11.40;99.90;;;;;;7383771;19;20015;-84
2023/06/07 02:51:18;;;;;;;17.23;9.73;;;11.40;99.90;;;;;;7381458;19;20397;-84
2023/06/07 02:53:45;;;;;;;27.40;11.00;;;11.40;99.90;;;;;;7381230;19;20019;-83
2023/06/07 02:56:12;;;;;;;18.38;9.52;;;11.40;99.90;;;;;;7379957;19;20014;-83
2023/06/07 02:58:41;;;;;;;16.30;10.65;;;11.40;99.90;;;;;;7380596;19;20014;-84
2023/06/07 03:01:08;;;;;;;20.40;10.00;;;11.50;99.90;;;;;;7382296;19;20026;-85
2023/06/07 03:03:41;;;;;;;15.57;9.95;;;11.50;99.90;;;;;;7371945;19;21069;-85
2023/06/07 03:06:09;;;;;;;17.52;9.82;;;11.50;99.90;;;;;;7379248;19;20018;-84
2023/06/07 03:08:38;;;;;;;21.75;10.50;;;11.40;99.90;;;;;;7376510;19;20082;-85
2023/06/07 03:11:05;;;;;;;16.65;11.48;;;11.40;99.90;;;;;;7386877;19;20460;-84
2023/06/07 03:13:36;;;;;;;21.88;10.75;;;11.40;99.90;;;;;;7385194;19;20100;-84
2023/06/07 03:16:07;;;;;;;19.20;10.23;;;11.40;99.90;;;;;;7384233;19;20022;-84
2023/06/07 03:18:42;;;;;;;18.52;10.70;;;11.40;99.90;;;;;;7384080;19;20018;-85
2023/06/07 03:21:09;;;;;;;17.73;10.75;;;11.50;99.90;;;;;;7388377;19;20066;-84
2023/06/07 03:23:37;;;;;;;19.20;10.75;;;11.50;99.90;;;;;;7384017;19;20377;-84
2023/06/07 03:26:03;;;;;;;20.27;10.35;;;11.50;99.90;;;;;;7385292;19;20019;-85
2023/06/07 03:28:33;;;;;;;19.77;10.73;;;11.50;99.90;;;;;;7384726;19;20029;-84
2023/06/07 03:31:03;;;;;;;22.02;10.15;;;11.50;99.90;;;;;;7386700;19;20011;-84
2023/06/07 03:33:41;;;;;;;20.95;10.13;;;11.60;99.90;;;;;;7385739;19;20043;-84
2023/06/07 03:36:08;;;;;;;23.17;10.18;;;11.60;99.90;;;;;;7386169;19;20025;-84
2023/06/07 03:38:41;;;;;;;15.20;9.63;;;11.60;99.90;;;;;;7382961;19;20040;-84
2023/06/07 03:41:09;;;;;;;17.55;9.63;;;11.60;99.90;;;;;;7385802;19;20018;-83
2023/06/07 03:43:39;;;;;;;20.13;10.65;;;11.70;99.90;;;;;;7384591;19;20023;-84
2023/06/07 03:46:06;;;;;;;24.77;10.98;;;11.70;99.90;;;;;;7384633;19;20022;-84
2023/06/07 03:48:33;;;;;;;19.35;9.15;;;11.70;99.90;;;;;;7381159;19;20498;-84
2023/06/07 03:51:02;;;;;;;28.13;9.38;;;11.70;99.90;;;;;;7387097;19;20018;-84
2023/06/07 03:53:29;;;;;;;19.10;9.02;;;11.70;99.90;;;;;;7383504;19;20409;-84
2023/06/07 03:55:56;;;;;;;15.38;7.60;;;11.70;99.90;;;;;;7386820;19;20491;-84
2023/06/07 03:58:25;;;;;;;18.42;8.43;;;11.70;99.90;;;;;;7383470;19;20026;-84
2023/06/07 04:00:52;;;;;;;21.05;8.23;;;11.70;99.90;;;;;;7384754;19;20022;-84
2023/06/07 04:03:25;;;;;;;17.17;8.95;;;11.70;99.90;;;;;;7382851;19;20022;-84
2023/06/07 04:05:54;;;;;;;17.65;8.15;;;11.80;99.90;;;;;;7382371;19;20018;-84
2023/06/07 04:08:22;;;;;;;18.83;7.28;;;11.70;99.90;;;;;;7385213;19;20046;-84
2023/06/07 04:10:55;;;;;;;19.95;8.07;;;11.70;99.90;;;;;;7383655;19;20084;-84
2023/06/07 04:13:22;;;;;;;18.70;8.02;;;11.60;99.90;;;;;;7385218;19;20014;-84
2023/06/07 04:15:49;;;;;;;18.50;8.38;;;11.70;99.90;;;;;;7382525;19;20051;-84
2023/06/07 04:18:18;;;;;;;20.08;8.07;;;11.80;99.90;;;;;;7384370;19;20014;-84
2023/06/07 04:20:45;;;;;;;17.10;8.02;;;11.80;99.90;;;;;;7380506;19;20471;-84
2023/06/07 04:23:18;;;;;;;15.35;7.38;;;11.80;99.90;;;;;;7381902;19;20022;-84
2023/06/07 04:25:46;;;;;;;16.98;7.35;;;11.80;99.90;;;;;;7383537;19;20492;-84
2023/06/07 04:28:13;;;;;;;17.17;7.55;;;11.80;99.90;;;;;;7385783;19;20483;-84
2023/06/07 04:30:43;;;;;;;17.85;8.00;;;11.80;99.90;;;;;;7383203;19;20511;-85
2023/06/07 04:33:12;;;;;;;20.70;7.97;;;11.90;99.90;;;;;;7387251;19;20463;-85
2023/06/07 04:35:42;;;;;;;14.27;7.55;;;11.90;99.90;;;;;;7384048;19;20015;-85
2023/06/07 04:38:21;;;;;;;17.38;7.10;;;12.00;99.90;;;;;;7388110;19;20022;-84
2023/06/07 04:40:55;;;;;;;14.73;7.27;;;12.00;99.90;;;;;;7384025;19;20014;-84
2023/06/07 04:43:36;;;;;;;18.35;7.57;;;12.10;99.90;;;;;;7383235;19;20347;-84
2023/06/07 04:46:04;;;;;;;19.17;7.45;;;12.10;99.90;;;;;;7384535;19;20014;-83
2023/06/07 04:48:32;;;;;;;19.13;7.90;;;12.20;99.90;;;;;;7380068;19;20019;-84
2023/06/07 04:51:05;;;;;;;17.35;6.97;;;12.30;99.90;;;;;;7378914;19;20018;-83
2023/06/07 04:53:39;;;;;;;19.30;6.75;;;12.30;99.90;;;;;;7380102;19;20377;-83
2023/06/07 04:56:09;;;;;;;18.83;7.30;;;12.30;99.90;;;;;;7378372;19;20018;-84
2023/06/07 04:58:40;;;;;;;14.18;7.60;;;12.30;99.90;;;;;;7380344;19;20039;-84
2023/06/07 05:01:10;;;;;;;14.30;7.43;;;12.40;99.90;;;;;;7385575;19;20022;-83
2023/06/07 05:03:40;;;;;;;15.77;7.78;;;12.40;99.90;;;;;;7383070;19;20368;-84
2023/06/07 05:06:07;;;;;;;18.23;7.07;;;12.50;99.90;;;;;;7386019;19;20096;-83
2023/06/07 05:08:38;;;;;;;14.52;7.07;;;12.50;99.90;;;;;;7381249;19;20105;-84
2023/06/07 05:11:08;;;;;;;15.88;6.88;;;12.60;99.90;;;;;;7383330;19;20131;-83
2023/06/07 05:13:35;;;;;;;19.25;7.15;;;12.70;99.90;;;;;;7378622;19;20026;-84
2023/06/07 05:16:04;;;;;;;20.20;6.75;;;12.70;99.90;;;;;;7378603;19;20030;-84
2023/06/07 05:18:35;;;;;;;16.90;6.53;;;12.80;99.90;;;;;;7377605;19;20573;-84
2023/06/07 05:21:03;;;;;;;22.35;7.05;;;12.80;99.90;;;;;;7375719;19;20045;-84
2023/06/07 05:23:31;;;;;;;19.23;8.73;;;12.90;99.90;;;;;;7378042;19;20557;-84
2023/06/07 05:25:59;;;;;;;13.98;6.82;;;12.90;99.90;;;;;;7381940;19;20514;-84
2023/06/07 05:28:26;;;;;;;15.80;6.82;;;13.00;99.90;;;;;;7383512;19;20018;-84
2023/06/07 05:30:56;;;;;;;14.07;5.95;;;13.20;99.90;;;;;;7381814;19;20507;-84
2023/06/07 05:33:23;;;;;;;14.88;7.45;;;13.20;99.90;;;;;;7380008;19;20505;-84
2023/06/07 05:35:53;;;;;;;15.32;5.75;;;13.40;99.90;;;;;;7382475;19;20039;-84
2023/06/07 05:38:23;;;;;;;17.92;5.80;;;13.50;99.90;;;;;;7383058;19;20021;-85
2023/06/07 05:40:55;;;;;;;11.52;5.13;;;13.50;99.90;;;;;;7383438;19;20010;-85
2023/06/07 05:43:22;;;;;;;24.98;10.00;;;13.50;99.90;;;;;;7382181;19;20018;-85
2023/06/07 05:45:53;;;;;;;13.60;5.80;;;13.60;99.90;;;;;;7383508;19;20069;-85
2023/06/07 05:48:24;;;;;;;17.02;6.25;;;13.60;99.90;;;;;;7382813;19;20015;-85
2023/06/07 05:50:54;;;;;;;16.55;5.72;;;13.70;99.90;;;;;;7384055;19;20014;-90
2023/06/07 05:53:26;;;;;;;16.98;6.78;;;13.80;99.90;;;;;;7384301;19;20018;-89
2023/06/07 05:55:53;;;;;;;17.98;6.88;;;13.80;99.90;;;;;;7386351;19;20053;-90
2023/06/07 05:58:23;;;;;;;16.95;5.95;;;13.90;99.90;;;;;;7382978;19;20019;-88
2023/06/07 06:00:50;;;;;;;17.17;8.00;;;13.80;99.90;;;;;;7386924;19;20035;-89
2023/06/07 06:03:19;;;;;;;17.80;7.13;;;13.70;99.90;;;;;;7382640;19;20020;-89
2023/06/07 06:05:50;;;;;;;16.73;5.82;;;13.60;99.90;;;;;;7386321;19;20398;-90
2023/06/07 06:08:17;;;;;;;18.30;5.40;;;13.70;99.90;;;;;;7386734;19;20070;-90
2023/06/07 06:10:45;;;;;;;13.48;4.90;;;13.70;99.90;;;;;;7384023;19;20021;-90
2023/06/07 06:13:13;;;;;;;16.80;5.72;;;14.00;99.90;;;;;;7385886;19;20365;-90
2023/06/07 06:15:40;;;;;;;19.33;6.13;;;14.10;99.90;;;;;;7382211;19;20015;-75
2023/06/07 06:18:07;;;;;;;12.57;5.47;;;14.30;99.90;;;;;;7368575;19;20523;-75
2023/06/07 06:20:36;;;;;;;18.15;6.75;;;14.50;99.90;;;;;;7370906;19;20022;-75
2023/06/07 06:23:03;;;;;;;14.27;4.80;;;14.60;99.90;;;;;;7370030;19;20018;-75
2023/06/07 06:25:30;;;;;;;12.57;4.80;;;14.60;99.90;;;;;;7371244;19;20018;-75
2023/06/07 06:27:57;;;;;;;12.60;4.57;;;14.70;99.90;;;;;;7371959;19;20085;-75
2023/06/07 06:30:26;;;;;;;18.15;8.20;;;14.70;99.90;;;;;;7370822;19;20021;-75
2023/06/07 06:32:52;;;;;;;13.70;5.35;;;14.90;99.90;;;;;;7371078;19;20014;-75
2023/06/07 06:35:18;;;;;;;13.57;4.95;;;15.00;99.90;;;;;;7370114;19;20447;-75
2023/06/07 06:37:45;;;;;;;9.65;5.00;;;15.20;99.90;;;;;;7370694;19;20015;-75
2023/06/07 06:40:12;;;;;;;13.70;5.53;;;15.40;99.90;;;;;;7366770;19;20139;-75
2023/06/07 06:42:38;;;;;;;14.68;5.25;;;15.60;99.90;;;;;;7368922;19;20014;-75
2023/06/07 06:45:22;;;;;;;17.73;7.28;;;15.60;99.90;;;;;;7383576;19;20026;-76
2023/06/07 06:47:50;;;;;;;17.60;6.00;;;15.80;99.90;;;;;;7385907;19;20023;-75
2023/06/07 06:50:17;;;;;;;16.45;6.75;;;16.00;99.90;;;;;;7383370;19;20014;-75
2023/06/07 06:52:43;;;;;;;11.88;4.22;;;15.70;99.90;;;;;;7382411;19;20031;-75
2023/06/07 06:55:10;;;;;;;10.88;3.90;;;15.90;99.90;;;;;;7383346;19;20018;-75
2023/06/07 06:57:36;;;;;;;15.82;4.55;;;16.00;99.90;;;;;;7383454;19;20454;-75
2023/06/07 07:00:05;;;;;;;14.20;4.18;;;16.10;99.90;;;;;;7385152;19;20018;-75
2023/06/07 07:02:34;;;;;;;;;;;16.10;99.90;;;;;;7383422;19;20715;-75
2023/06/07 07:05:05;;;;;;;9.68;3.80;;;16.40;99.90;;;;;;7379734;19;19926;-75
2023/06/07 07:07:32;;;;;;;14.77;6.40;;;16.90;99.90;;;;;;7386746;19;20022;-75
2023/06/07 07:09:59;;;;;;;11.77;4.53;;;17.40;99.90;;;;;;7385140;19;20788;-76
2023/06/07 07:12:26;;;;;;;13.20;4.00;;;17.60;99.90;;;;;;7386303;19;20089;-76
2023/06/07 07:14:53;;;;;;;13.60;4.88;;;17.80;99.90;;;;;;7387958;19;20018;-75
2023/06/07 07:17:20;;;;;;;13.75;4.20;;;17.80;99.90;;;;;;7385035;19;20026;-76
2023/06/07 07:19:47;;;;;;;12.82;4.03;;;17.80;99.90;;;;;;7380912;19;20021;-76
2023/06/07 07:22:13;;;;;;;14.35;5.45;;;17.60;99.90;;;;;;7383429;19;20494;-76
2023/06/07 07:24:39;;;;;;;14.05;5.15;;;17.50;99.90;;;;;;7382174;19;20022;-75
2023/06/07 07:27:09;;;;;;;11.85;4.22;;;17.50;99.90;;;;;;7384001;19;20018;-76
2023/06/07 07:29:35;;;;;;;19.15;4.80;;;17.60;99.90;;;;;;7382326;19;20061;-76
2023/06/07 07:32:02;;;;;;;11.30;3.55;;;17.60;99.90;;;;;;7382513;19;20075;-76
2023/06/07 07:34:28;;;;;;;13.43;5.18;;;17.70;99.90;;;;;;7381728;19;20081;-76
2023/06/07 07:36:57;;;;;;;12.82;5.85;;;17.80;99.90;;;;;;7386175;19;20018;-76
2023/06/07 07:39:25;;;;;;;12.52;6.53;;;18.10;99.90;;;;;;7384289;19;20425;-76
2023/06/07 07:41:52;;;;;;;13.57;6.55;;;18.70;99.90;;;;;;7380963;19;20022;-76
2023/06/07 07:44:18;;;;;;;11.38;4.72;;;18.60;99.90;;;;;;7383393;19;20549;-76
2023/06/07 07:46:45;;;;;;;14.00;4.53;;;18.70;99.90;;;;;;7381282;19;20018;-76
2023/06/07 07:49:11;;;;;;;13.88;4.47;;;18.60;99.90;;;;;;7385486;19;20022;-76
2023/06/07 07:51:38;;;;;;;11.48;4.30;;;18.90;99.90;;;;;;7382139;19;20021;-76
2023/06/07 07:54:06;;;;;;;12.75;4.43;;;18.80;99.90;;;;;;7382342;19;20014;-74
2023/06/07 07:56:32;;;;;;;15.20;4.80;;;19.00;99.90;;;;;;7380730;19;20077;-74
2023/06/07 07:58:58;;;;;;;12.82;4.05;;;19.50;99.90;;;;;;7374795;19;20022;-75
2023/06/07 08:01:25;;;;;;;10.73;3.88;;;20.10;99.90;;;;;;7363001;19;20026;-76
2023/06/07 08:03:51;;;;;;;12.55;4.13;;;20.30;99.90;;;;;;7363035;19;20035;-75
2023/06/07 08:06:18;;;;;;;9.75;4.32;;;20.80;99.90;;;;;;7372021;19;20547;-75
2023/06/07 08:08:47;;;;;;;57.63;51.53;;;21.00;99.90;;;;;;7371717;19;20025;-76
2023/06/07 08:11:13;;;;;;;17.02;11.05;;;21.20;99.90;;;;;;7370723;19;20385;-76
2023/06/07 08:13:40;;;;;;;23.75;16.73;;;21.40;99.90;;;;;;7370038;19;20018;-76
2023/06/07 08:16:07;;;;;;;13.98;9.57;;;21.90;99.90;;;;;;7374731;19;20421;-76
2023/06/07 08:18:33;;;;;;;9.65;4.05;;;22.10;99.90;;;;;;7374352;19;20019;-76
2023/06/07 08:21:00;;;;;;;18.90;11.05;;;22.30;99.90;;;;;;7375713;19;20474;-76
2023/06/07 08:23:26;;;;;;;11.27;4.07;;;22.50;99.90;;;;;;7374755;19;20039;-76
2023/06/07 08:25:53;;;;;;;17.65;5.93;;;22.00;99.90;;;;;;7373754;19;20025;-76
2023/06/07 08:28:20;;;;;;;13.27;5.80;;;21.70;99.70;;;;;;7376521;19;20410;-76
2023/06/07 08:30:47;;;;;;;11.88;5.40;;;22.20;99.90;;;;;;7372117;19;20019;-76
2023/06/07 08:33:13;;;;;;;9.77;3.45;;;22.10;98.20;;;;;;7375991;19;20398;-76
2023/06/07 08:35:40;;;;;;;8.85;4.10;;;22.50;99.20;;;;;;7374770;19;20018;-77
2023/06/07 08:38:07;;;;;;;12.77;4.18;;;22.70;98.40;;;;;;7376949;19;20134;-76
2023/06/07 08:40:36;;;;;;;12.82;6.00;;;22.90;98.10;;;;;;7373323;19;20797;-76
2023/06/07 08:43:03;;;;;;;23.85;19.98;;;23.10;95.60;;;;;;7375177;19;20021;-77
2023/06/07 08:45:29;;;;;;;17.27;12.40;;;23.30;93.50;;;;;;7368712;19;20025;-75
2023/06/07 08:47:58;;;;;;;11.77;6.65;;;22.90;91.80;;;;;;7374756;19;20019;-76
2023/06/07 08:50:26;;;;;;;10.50;4.13;;;23.10;88.30;;;;;;7373733;19;20899;-75
2023/06/07 08:52:55;;;;;;;43.50;38.90;;;23.40;86.20;;;;;;7371815;19;20136;-76
2023/06/07 08:55:22;;;;;;;11.32;7.63;;;23.80;83.80;;;;;;7371805;19;20014;-75
2023/06/07 08:57:52;;;;;;;13.05;8.00;;;23.70;81.40;;;;;;7374310;19;20023;-75
2023/06/07 09:00:23;;;;;;;12.32;7.85;;;24.10;78.60;;;;;;7375331;19;20062;-75
2023/06/07 09:02:52;;;;;;;9.75;4.03;;;23.90;76.70;;;;;;7373706;19;20615;-75
2023/06/07 09:05:22;;;;;;;25.55;22.85;;;24.10;76.40;;;;;;7373225;19;20015;-75
2023/06/07 09:07:50;;;;;;;30.00;25.90;;;24.00;74.20;;;;;;7374208;19;20712;-76
2023/06/07 09:10:23;;;;;;;13.93;4.72;;;24.20;74.90;;;;;;7374298;19;20511;-75
2023/06/07 09:12:49;;;;;;;17.70;11.52;;;24.30;72.80;;;;;;7373786;19;20019;-76
2023/06/07 09:15:21;;;;;;;5.85;3.03;;;24.40;73.90;;;;;;7372434;19;20018;-76
2023/06/07 09:17:58;;;;;;;9.90;4.35;;;24.60;70.80;;;;;;7374651;19;20525;-76
2023/06/07 09:20:26;;;;;;;15.02;8.73;;;24.80;68.90;;;;;;7371798;19;20026;-77
2023/06/07 09:23:06;;;;;;;10.77;4.32;;;24.80;67.80;;;;;;7369858;19;20024;-76
2023/06/07 09:25:32;;;;;;;9.43;3.58;;;25.20;68.10;;;;;;7367701;19;20760;-76
2023/06/07 09:28:01;;;;;;;10.15;5.45;;;24.80;67.70;;;;;;7370873;19;20022;-76
2023/06/07 09:30:30;;;;;;;10.38;4.30;;;24.90;67.10;;;;;;7371585;19;20506;-75
2023/06/07 09:32:59;;;;;;;11.55;5.25;;;25.20;65.10;;;;;;7366897;19;20372;-76
2023/06/07 09:35:25;;;;;;;8.75;4.53;;;25.50;63.70;;;;;;7362234;19;20042;-76
2023/06/07 09:37:54;;;;;;;8.93;4.10;;;25.60;62.20;;;;;;7356263;19;20380;-76
2023/06/07 09:40:23;;;;;;;11.80;3.95;;;25.60;63.60;;;;;;7355083;19;20014;-75
2023/06/07 09:43:00;;;;;;;11.52;5.78;;;25.80;61.40;;;;;;7358882;19;20051;-75
2023/06/07 09:45:27;;;;;;;14.50;9.50;;;25.50;60.80;;;;;;7349630;19;20475;-76
2023/06/07 09:48:04;;;;;;;10.48;6.45;;;25.40;60.90;;;;;;7353789;19;21297;-76
2023/06/07 09:50:31;;;;;;;9.02;3.60;;;25.80;59.90;;;;;;7358276;19;20022;-76
2023/06/07 09:53:01;;;;;;;10.93;4.60;;;26.20;61.20;;;;;;7359362;19;20029;-76
2023/06/07 09:55:29;;;;;;;11.63;3.88;;;26.00;59.00;;;;;;7357621;19;20527;-76
2023/06/07 09:57:55;;;;;;;16.13;13.18;;;26.40;59.40;;;;;;7364661;19;20014;-77
2023/06/07 10:00:21;;;;;;;13.13;4.93;;;26.40;58.30;;;;;;7373004;19;20029;-76
2023/06/07 10:02:49;;;;;;;10.65;5.47;;;26.40;58.40;;;;;;7366143;19;20022;-76
2023/06/07 10:05:21;;;;;;;11.85;7.32;;;26.20;58.40;;;;;;7366785;19;20033;-77
2023/06/07 10:07:56;;;;;;;8.63;3.40;;;26.60;57.60;;;;;;7362779;19;20018;-76
2023/06/07 10:10:24;;;;;;;11.00;4.20;;;26.70;57.30;;;;;;7371441;19;20015;-76
2023/06/07 10:12:54;;;;;;;13.88;8.75;;;26.80;57.10;;;;;;7370468;19;20407;-75
2023/06/07 10:15:26;;;;;;;9.57;5.10;;;27.00;56.10;;;;;;7371770;19;20026;-75
2023/06/07 10:18:23;;;;;;;14.40;11.02;;;27.20;56.20;;;;;;7368865;19;20022;-75
2023/06/07 10:20:57;;;;;;;11.32;4.20;;;27.20;55.00;;;;;;7371537;19;20010;-76
2023/06/07 10:24:01;;;;;;;9.75;4.03;;;26.80;54.80;;;;;;7369030;19;20455;-76
2023/06/07 10:26:42;;;;;;;7.80;3.28;;;27.30;54.60;;;;;;7367783;19;20022;-76
2023/06/07 10:29:11;;;;;;;10.15;3.92;;;27.00;53.60;;;;;;7371264;19;20491;-75
2023/06/07 10:31:53;;;;;;;9.15;3.80;;;27.40;55.30;;;;;;7369161;19;20026;-76
2023/06/07 10:34:21;;;;;;;11.35;4.10;;;27.70;55.00;;;;;;7371582;19;20100;-76
2023/06/07 10:36:48;;;;;;;10.10;3.65;;;27.80;53.30;;;;;;7368582;19;20019;-76
2023/06/07 10:39:14;;;;;;;8.38;3.25;;;27.70;52.60;;;;;;7371125;19;20065;-76
2023/06/07 10:41:41;;;;;;;9.23;3.85;;;27.30;52.40;;;;;;7366134;19;20022;-75
2023/06/07 10:44:09;;;;;;;11.07;4.15;;;27.30;53.30;;;;;;7370138;19;20043;-76
2023/06/07 10:46:35;;;;;;;11.10;3.97;;;27.10;54.30;;;;;;7370104;19;20035;-75
2023/06/07 10:49:03;;;;;;;9.48;4.35;;;27.60;54.10;;;;;;7372949;19;20044;-76
2023/06/07 10:51:41;;;;;;;11.23;4.88;;;27.70;53.80;;;;;;7371156;19;20019;-75
2023/06/07 10:54:08;;;;;;;8.32;3.67;;;28.10;52.10;;;;;;7364965;19;20014;-75
2023/06/07 10:56:36;;;;;;;8.25;3.60;;;28.00;52.60;;;;;;7370229;19;20026;-75
2023/06/07 10:59:15;;;;;;;10.65;4.82;;;28.50;52.30;;;;;;7370966;19;20018;-75
2023/06/07 11:01:44;;;;;;;9.43;4.10;;;28.60;51.80;;;;;;7366867;19;20462;-75
2023/06/07 11:04:37;;;;;;;10.70;3.85;;;29.00;51.70;;;;;;7366686;19;20022;-76
2023/06/07 11:07:32;;;;;;;18.88;14.13;;;28.60;50.30;;;;;;7371552;19;20021;-76
2023/06/07 11:10:04;;;;;;;11.23;7.38;;;28.40;49.00;;;;;;7369088;19;20586;-75
2023/06/07 11:12:35;;;;;;;22.95;17.98;;;28.30;49.40;;;;;;7366718;19;20098;-75
2023/06/07 11:15:36;;;;;;;6.93;3.85;;;28.20;50.30;;;;;;7363221;19;20017;-75
2023/06/07 11:18:05;;;;;;;8.63;4.13;;;28.40;49.00;;;;;;7369713;19;20022;-76
2023/06/07 11:20:38;;;;;;;12.43;4.57;;;28.40;50.30;;;;;;7372335;19;20011;-75
2023/06/07 11:23:35;;;;;;;6.53;3.35;;;28.10;50.30;;;;;;7367799;19;20037;-75
2023/06/07 11:26:12;;;;;;;8.80;4.38;;;28.20;49.40;;;;;;7370895;19;20042;-75
2023/06/07 11:28:40;;;;;;;7.38;3.58;;;28.50;50.00;;;;;;7371247;19;20018;-76
2023/06/07 11:31:11;;;;;;;7.50;4.13;;;28.20;49.80;;;;;;7376191;19;20040;-75
2023/06/07 11:33:42;;;;;;;9.27;3.75;;;28.50;50.60;;;;;;7376981;19;20455;-74
2023/06/07 11:36:09;;;;;;;11.05;4.13;;;28.80;49.30;;;;;;7380195;19;20524;-76
2023/06/07 11:38:37;;;;;;;9.32;3.13;;;28.90;49.50;;;;;;7378442;19;20059;-75
2023/06/07 11:41:05;;;;;;;13.32;6.30;;;28.50;49.90;;;;;;7376400;19;20585;-75
2023/06/07 11:43:32;;;;;;;8.35;4.00;;;28.40;49.30;;;;;;7376004;19;20030;-75
2023/06/07 11:45:59;;;;;;;10.38;4.07;;;28.80;49.30;;;;;;7374461;19;20018;-75
2023/06/07 11:48:29;;;;;;;8.73;3.80;;;28.50;49.30;;;;;;7377375;19;20100;-75
2023/06/07 11:50:57;;;;;;;10.13;3.95;;;28.60;49.80;;;;;;7375022;19;20510;-75
2023/06/07 11:53:23;;;;;;;10.45;4.05;;;28.50;49.30;;;;;;7375682;19;20683;-75
2023/06/07 11:55:50;;;;;;;8.52;4.50;;;28.60;48.90;;;;;;7376524;19;20025;-75
2023/06/07 11:58:17;;;;;;;8.43;4.15;;;28.80;48.50;;;;;;7376022;19;20018;-74
2023/06/07 12:00:44;;;;;;;8.07;4.72;;;28.80;48.30;;;;;;7374427;19;20010;-76
2023/06/07 12:03:11;;;;;;;10.32;3.85;;;28.80;48.80;;;;;;7375625;19;20388;-75
2023/06/07 12:05:37;;;;;;;8.93;3.53;;;28.70;48.90;;;;;;7376123;19;20486;-75
2023/06/07 12:08:07;;;;;;;7.10;3.78;;;28.50;48.50;;;;;;7376450;19;20044;-75
2023/06/07 12:10:38;;;;;;;10.05;3.92;;;28.50;48.20;;;;;;7375407;19;20014;-75
2023/06/07 12:13:16;;;;;;;10.93;3.75;;;28.30;49.10;;;;;;7373162;19;20499;-75
2023/06/07 12:15:53;;;;;;;9.65;3.53;;;28.70;49.10;;;;;;7373863;19;20022;-75
2023/06/07 12:18:23;;;;;;;9.07;3.42;;;29.30;48.90;;;;;;7369706;19;20047;-74
2023/06/07 12:21:02;;;;;;;7.78;4.00;;;29.40;47.90;;;;;;7371998;19;20345;-75
2023/06/07 12:23:28;;;;;;;9.05;3.67;;;29.50;46.50;;;;;;7363432;19;20346;-75
2023/06/07 12:26:09;;;;;;;11.48;6.20;;;29.40;47.40;;;;;;7362405;19;20582;-76
2023/06/07 12:28:36;;;;;;;6.68;3.25;;;29.20;46.90;;;;;;7366277;19;20496;-75
2023/06/07 12:31:02;;;;;;;12.90;8.70;;;29.00;48.40;;;;;;7376470;19;20019;-76
2023/06/07 12:33:29;;;;;;;9.70;4.57;;;29.60;48.20;;;;;;7375896;19;20432;-75
2023/06/07 12:35:58;;;;;;;12.13;7.05;;;29.30;48.00;;;;;;7376169;19;20055;-76
2023/06/07 12:38:25;;;;;;;10.98;7.10;;;29.60;47.50;;;;;;7376356;19;20015;-76
2023/06/07 12:40:51;;;;;;;14.40;7.68;;;29.60;47.80;;;;;;7377111;19;20014;-75
2023/06/07 12:43:17;;;;;;;15.43;10.50;;;29.70;47.30;;;;;;7374092;19;20032;-75
2023/06/07 12:45:46;;;;;;;11.90;7.25;;;29.90;45.50;;;;;;7374934;19;20043;-76
2023/06/07 12:48:13;;;;;;;25.65;22.90;;;29.40;45.90;;;;;;7373642;19;20089;-75
2023/06/07 12:50:39;;;;;;;17.67;14.93;;;29.70;46.70;;;;;;7374096;19;20355;-75